Search for airport 
image banner adimage banner adimage banner ad
image banner ad

CA26 - Hall Of Justice

Located in San Francisco, United States

ICAO - CA26, IATA -

Data provided by Airmate  

General information

Coordinates: N37°46'30" W122°24'15"
Elevation is 118 feet MSL.
Magnetic variation is 16° East
View others Airports in California

Operational data

Special qualification required
Current time UTC:
Current local time:
Weather at : KOAK - Metropolitan Oakland Intl ( 17 km )
METAR: KOAK 141253Z 28009KT 10SM FEW007 BKN010 OVC019 17/16 A3002 RMK AO2 SLP163 T01720156
TAF: KOAK 141120Z 1412/1518 VRB05KT P6SM FEW007 BKN015 TEMPO 1412/1414 2SM BR BKN007 FM141700 25006KT P6SM FEW007 SCT015 FM142000 27013KT P6SM FEW015 FM150500 27007KT P6SM FEW012 FM150900 VRB04KT P6SM SCT010 FM151500 29014KT P6SM FEW010
View NOTAMs / SUP AIP / TFR affecting this airport [VIEW]
Communications frequencies: [VIEW]

Runways:

Airport contact information

Address: San Francisco United States

Satellite view of CA26